createdAt,value
2017-05-07T00:00:16.256Z,100540.69
2017-05-07T00:02:43.904Z,100537.55
2017-05-07T00:05:11.525Z,100540.52
2017-05-07T00:07:39.118Z,100540.38
2017-05-07T00:10:06.689Z,100534.03
2017-05-07T00:12:34.217Z,100539.97
2017-05-07T00:15:01.747Z,100542.11
2017-05-07T00:17:29.333Z,100544.78
2017-05-07T00:19:56.877Z,100550.38
2017-05-07T00:22:24.451Z,100551.52
2017-05-07T00:24:51.984Z,100556.28
2017-05-07T00:27:19.849Z,100545.52
2017-05-07T00:29:47.460Z,100546.38
2017-05-07T00:32:14.986Z,100547.05
2017-05-07T00:34:42.571Z,100546.28
2017-05-07T00:37:10.097Z,100555.39
2017-05-07T00:39:37.729Z,100560.16
2017-05-07T00:42:05.294Z,100556.06
2017-05-07T00:44:32.987Z,100560.41
2017-05-07T00:47:00.544Z,100560.32
2017-05-07T00:49:28.084Z,100565.64
2017-05-07T00:51:55.674Z,100567.81
2017-05-07T00:54:23.206Z,100568.91
2017-05-07T00:56:50.805Z,100576.25
2017-05-07T00:59:18.428Z,100581.30
2017-05-07T01:01:46.137Z,100578.22
2017-05-07T01:04:13.665Z,100582.58
2017-05-07T01:06:41.196Z,100575.06
2017-05-07T01:09:08.785Z,100570.75
2017-05-07T01:11:36.487Z,100571.15
2017-05-07T01:14:04.066Z,100574.91
2017-05-07T01:16:31.680Z,100579.34
2017-05-07T01:18:59.306Z,100578.76
2017-05-07T01:21:26.861Z,100583.38
2017-05-07T01:23:54.605Z,100578.41
2017-05-07T01:26:22.133Z,100582.22
2017-05-07T01:28:49.667Z,100575.53
2017-05-07T01:31:17.232Z,100580.34
2017-05-07T01:33:44.775Z,100582.50
2017-05-07T01:36:12.523Z,100581.10
2017-05-07T01:38:40.093Z,100581.66
2017-05-07T01:41:07.626Z,100587.66
2017-05-07T01:43:35.202Z,100593.46
2017-05-07T01:46:02.732Z,100592.22
2017-05-07T01:48:30.288Z,100588.50
2017-05-07T01:50:57.819Z,100588.25
2017-05-07T01:53:25.514Z,100600.20
2017-05-07T01:55:53.045Z,100593.38
2017-05-07T01:58:20.613Z,100595.98
2017-05-07T02:00:48.231Z,100592.53
2017-05-07T02:03:15.771Z,100592.47
2017-05-07T02:05:43.344Z,100587.25
2017-05-07T02:08:10.925Z,100587.66
2017-05-07T02:10:38.548Z,100585.87
2017-05-07T02:13:06.083Z,100584.36
2017-05-07T02:15:33.871Z,100585.84
2017-05-07T02:18:01.459Z,100584.47
2017-05-07T02:20:29.004Z,100590.70
2017-05-07T02:22:56.653Z,100584.08
2017-05-07T02:25:24.213Z,100587.02
2017-05-07T02:27:51.811Z,100589.44
2017-05-07T02:30:19.367Z,100584.98
2017-05-07T02:32:46.932Z,100588.36
2017-05-07T02:35:14.563Z,100591.11
2017-05-07T02:37:42.137Z,100596.43
2017-05-07T02:40:09.684Z,100590.91
2017-05-07T02:42:37.413Z,100597.20
2017-05-07T02:45:04.969Z,100598.03
2017-05-07T02:47:32.516Z,100601.42
2017-05-07T02:50:00.153Z,100610.16
2017-05-07T02:52:27.712Z,100607.82
2017-05-07T02:54:55.291Z,100608.01
2017-05-07T02:57:22.848Z,100607.77
2017-05-07T02:59:50.544Z,100618.64
2017-05-07T03:02:18.077Z,100607.22
2017-05-07T03:04:45.616Z,100608.56
2017-05-07T03:07:13.316Z,100613.64
2017-05-07T03:09:40.861Z,100613.83
2017-05-07T03:12:08.464Z,100610.05
2017-05-07T03:14:36.024Z,100607.31
2017-05-07T03:17:03.615Z,100610.66
2017-05-07T03:19:31.195Z,100612.63
2017-05-07T03:21:58.783Z,100621.16
2017-05-07T03:24:26.340Z,100619.15
2017-05-07T03:26:54.219Z,100617.28
2017-05-07T03:29:21.752Z,100617.58
2017-05-07T03:31:49.287Z,100627.80
2017-05-07T03:34:16.898Z,100631.33
2017-05-07T03:36:44.439Z,100620.25
2017-05-07T03:39:12.023Z,100633.01
2017-05-07T03:41:39.577Z,100632.05
2017-05-07T03:44:07.279Z,100625.74
2017-05-07T03:46:34.816Z,100626.73
2017-05-07T03:49:02.380Z,100623.65
2017-05-07T03:51:29.935Z,100623.31
2017-05-07T03:53:57.457Z,100623.72
2017-05-07T03:56:25.012Z,100629.30
2017-05-07T03:58:52.648Z,100622.63
2017-05-07T04:01:20.215Z,100630.70
2017-05-07T04:03:47.753Z,100634.22
2017-05-07T04:06:15.606Z,100632.10
2017-05-07T04:08:43.145Z,100626.41
2017-05-07T04:11:10.699Z,100633.92
2017-05-07T04:13:38.261Z,100635.36
2017-05-07T04:16:05.783Z,100632.17
2017-05-07T04:18:33.339Z,100637.95
2017-05-07T04:21:00.876Z,100640.72
2017-05-07T04:23:28.712Z,100649.78
2017-05-07T04:25:56.234Z,100647.91
2017-05-07T04:28:23.766Z,100647.74
2017-05-07T04:30:51.330Z,100642.19
2017-05-07T04:33:18.856Z,100649.38
2017-05-07T04:35:46.416Z,100651.70
2017-05-07T04:38:13.958Z,100653.41
2017-05-07T04:40:41.661Z,100659.23
2017-05-07T04:43:09.180Z,100661.80
2017-05-07T04:45:36.699Z,100666.27
2017-05-07T04:48:04.284Z,100669.50
2017-05-07T04:50:31.810Z,100673.88
2017-05-07T04:52:59.388Z,100676.30
2017-05-07T04:55:26.925Z,100678.78
2017-05-07T04:57:54.544Z,100678.95
2017-05-07T05:00:22.093Z,100674.49
2017-05-07T05:02:49.769Z,100678.91
2017-05-07T05:05:17.303Z,100680.45
2017-05-07T05:07:45.279Z,100685.80
2017-05-07T05:10:12.824Z,100690.45
2017-05-07T05:12:40.354Z,100694.36
2017-05-07T05:15:07.910Z,100702.19
2017-05-07T05:17:35.476Z,100700.44
2017-05-07T05:20:17.899Z,100707.79
2017-05-07T05:22:48.371Z,100707.69
2017-05-07T05:28:36.656Z,100713.91
2017-05-07T05:31:05.304Z,100717.48
2017-05-07T05:33:32.819Z,100722.19
2017-05-07T05:36:00.359Z,100716.98
2017-05-07T05:38:27.917Z,100719.97
2017-05-07T05:40:55.456Z,100716.73
2017-05-07T05:43:23.028Z,100727.41
2017-05-07T05:45:50.629Z,100728.91
2017-05-07T05:48:18.226Z,100729.77
2017-05-07T05:50:46.200Z,100731.61
2017-05-07T05:53:13.739Z,100737.67
2017-05-07T05:55:41.633Z,100735.95
2017-05-07T05:58:09.144Z,100737.30
2017-05-07T06:00:36.672Z,100734.69
2017-05-07T06:03:04.244Z,100738.71
2017-05-07T06:05:31.768Z,100741.56
2017-05-07T06:07:59.341Z,100742.66
2017-05-07T06:10:26.875Z,100747.64
2017-05-07T06:12:54.453Z,100756.16
2017-05-07T06:15:22.002Z,100754.16
2017-05-07T06:17:49.577Z,100760.59
2017-05-07T06:20:17.103Z,100763.91
2017-05-07T06:22:44.974Z,100765.00
2017-05-07T06:25:12.510Z,100763.00
2017-05-07T06:27:40.037Z,100760.04
2017-05-07T06:30:07.660Z,100769.84
2017-05-07T06:32:35.207Z,100767.62
2017-05-07T06:35:02.845Z,100771.39
2017-05-07T06:37:30.420Z,100777.03
2017-05-07T06:39:58.050Z,100782.87
2017-05-07T06:42:25.599Z,100782.13
2017-05-07T06:44:53.161Z,100779.80
2017-05-07T06:47:20.697Z,100784.59
2017-05-07T06:49:48.639Z,100781.27
2017-05-07T06:52:16.167Z,100788.27
2017-05-07T06:54:43.730Z,100789.93
2017-05-07T06:57:11.429Z,100789.84
2017-05-07T06:59:38.974Z,100789.81
2017-05-07T07:02:06.512Z,100801.12
2017-05-07T07:04:34.064Z,100790.97
2017-05-07T07:07:01.604Z,100801.11
2017-05-07T07:09:29.147Z,100800.45
2017-05-07T07:11:56.691Z,100792.11
2017-05-07T07:14:24.332Z,100797.98
2017-05-07T07:16:51.877Z,100806.73
2017-05-07T07:19:19.483Z,100807.59
2017-05-07T07:21:47.027Z,100809.47
2017-05-07T07:24:14.587Z,100816.03
2017-05-07T07:26:42.173Z,100815.16
2017-05-07T07:29:09.716Z,100820.86
2017-05-07T07:31:37.254Z,100823.32
2017-05-07T07:34:05.191Z,100825.66
2017-05-07T07:36:32.816Z,100828.84
2017-05-07T07:39:00.359Z,100833.87
2017-05-07T07:41:27.935Z,100835.45
2017-05-07T07:43:55.476Z,100834.16
2017-05-07T07:46:23.510Z,100837.02
2017-05-07T07:48:51.032Z,100839.91
2017-05-07T07:51:18.588Z,100838.14
2017-05-07T07:53:46.162Z,100839.28
2017-05-07T07:56:13.756Z,100839.96
2017-05-07T07:58:41.301Z,100842.84
2017-05-07T08:01:08.834Z,100846.66
2017-05-07T08:03:36.673Z,100844.13
2017-05-07T08:06:04.253Z,100845.75
2017-05-07T08:08:31.806Z,100847.09
2017-05-07T08:10:59.395Z,100850.17
2017-05-07T08:13:26.943Z,100854.25
2017-05-07T08:15:54.853Z,100855.48
2017-05-07T08:18:22.618Z,100857.48
2017-05-07T08:20:50.163Z,100865.00
2017-05-07T08:23:17.780Z,100861.54
2017-05-07T08:25:45.313Z,100867.03
2017-05-07T08:28:12.988Z,100867.11
2017-05-07T08:30:41.011Z,100871.66
2017-05-07T08:33:08.570Z,100875.54
2017-05-07T08:35:36.128Z,100884.43
2017-05-07T08:38:03.724Z,100883.64
2017-05-07T08:40:31.279Z,100884.91
2017-05-07T08:42:58.821Z,100889.45
2017-05-07T08:45:26.393Z,100891.52
2017-05-07T08:47:53.912Z,100890.07
2017-05-07T08:50:21.471Z,100901.24
2017-05-07T08:52:49.041Z,100899.31
2017-05-07T08:55:16.603Z,100906.18
2017-05-07T08:57:44.197Z,100901.64
2017-05-07T09:00:11.744Z,100909.09
2017-05-07T09:02:39.322Z,100902.97
2017-05-07T09:05:07.034Z,100911.16
2017-05-07T09:07:34.611Z,100911.20
2017-05-07T09:10:02.188Z,100912.38
2017-05-07T09:12:36.664Z,100916.55
2017-05-07T09:15:11.598Z,100915.91
2017-05-07T09:17:40.009Z,100918.15
2017-05-07T09:20:07.526Z,100920.03
2017-05-07T09:22:35.125Z,100925.93
2017-05-07T09:25:02.663Z,100921.41
2017-05-07T09:27:30.540Z,100936.80
2017-05-07T09:29:58.113Z,100919.78
2017-05-07T09:32:25.645Z,100930.40
2017-05-07T09:34:53.213Z,100929.80
2017-05-07T09:37:20.755Z,100940.80
2017-05-07T09:39:48.335Z,100931.30
2017-05-07T09:42:15.876Z,100938.37
2017-05-07T09:44:43.623Z,100939.16
2017-05-07T09:47:11.165Z,100944.84
2017-05-07T09:49:38.745Z,100943.73
2017-05-07T09:52:06.433Z,100951.80
2017-05-07T09:54:33.988Z,100948.23
2017-05-07T09:57:01.717Z,100952.55
2017-05-07T09:59:29.274Z,100960.26
2017-05-07T10:01:56.814Z,100952.20
2017-05-07T10:04:24.397Z,100956.69
2017-05-07T10:06:51.948Z,100958.56
2017-05-07T10:09:19.548Z,100959.10
2017-05-07T10:11:47.095Z,100958.39
2017-05-07T10:14:14.916Z,100961.77
2017-05-07T10:16:42.473Z,100971.97
2017-05-07T10:19:10.104Z,100976.23
2017-05-07T10:21:37.789Z,100968.83
2017-05-07T10:24:05.328Z,100977.62
2017-05-07T10:26:32.915Z,100980.17
2017-05-07T10:29:00.466Z,100974.28
2017-05-07T10:31:28.216Z,100972.44
2017-05-07T10:33:55.753Z,100976.93
2017-05-07T10:36:23.337Z,100971.81
2017-05-07T10:38:50.935Z,100974.73
2017-05-07T10:41:18.463Z,100970.29
2017-05-07T10:43:46.095Z,100967.27
2017-05-07T10:46:13.632Z,100967.30
2017-05-07T10:48:41.246Z,100972.95
2017-05-07T10:51:08.841Z,100975.22
2017-05-07T10:53:36.404Z,100969.63
2017-05-07T10:56:04.829Z,100968.50
2017-05-07T10:58:32.395Z,100971.14
2017-05-07T11:00:59.927Z,100978.57
2017-05-07T11:03:27.517Z,100974.76
2017-05-07T11:05:55.062Z,100973.00
2017-05-07T11:08:22.925Z,100972.16
2017-05-07T11:10:50.476Z,100983.08
2017-05-07T11:13:18.091Z,100975.80
2017-05-07T11:15:45.688Z,100981.77
2017-05-07T11:18:13.291Z,100986.44
2017-05-07T11:20:41.019Z,100981.48
2017-05-07T11:23:08.652Z,100975.63
2017-05-07T11:25:36.461Z,100978.55
2017-05-07T11:28:04.113Z,100978.23
2017-05-07T11:30:31.663Z,100979.23
2017-05-07T11:32:59.452Z,100987.66
2017-05-07T11:35:27.014Z,100983.69
2017-05-07T11:37:54.556Z,100980.72
2017-05-07T11:40:22.139Z,100980.98
2017-05-07T11:42:49.690Z,100981.03
2017-05-07T11:45:17.283Z,100983.64
2017-05-07T11:47:44.916Z,100987.43
2017-05-07T11:50:12.579Z,100992.06
2017-05-07T11:52:40.215Z,100994.02
2017-05-07T11:55:07.839Z,100986.22
2017-05-07T11:57:35.476Z,100985.65
2017-05-07T12:00:03.084Z,100986.23
2017-05-07T12:02:31.019Z,100979.34
2017-05-07T12:04:58.584Z,100984.87
2017-05-07T12:07:26.584Z,100983.22
2017-05-07T12:09:54.588Z,100987.16
2017-05-07T12:12:22.211Z,100982.87
2017-05-07T12:14:49.831Z,100978.63
2017-05-07T12:17:17.601Z,100970.08
2017-05-07T12:19:45.186Z,100980.78
2017-05-07T12:22:12.722Z,100971.02
2017-05-07T12:24:40.327Z,100973.33
2017-05-07T12:27:07.863Z,100975.11
2017-05-07T12:29:35.438Z,100971.16
2017-05-07T12:32:03.291Z,100969.17
2017-05-07T12:34:30.827Z,100967.56
2017-05-07T12:36:58.344Z,100976.06
2017-05-07T12:39:26.032Z,100969.05
2017-05-07T12:41:53.561Z,100968.77
2017-05-07T12:44:21.100Z,100970.78
2017-05-07T12:46:48.701Z,100967.81
2017-05-07T12:49:16.227Z,100979.08
2017-05-07T12:51:44.139Z,100970.06
2017-05-07T12:54:11.690Z,100973.20
2017-05-07T12:56:39.212Z,100971.66
2017-05-07T12:59:06.794Z,100969.95
2017-05-07T13:01:34.319Z,100971.65
2017-05-07T13:04:01.893Z,100977.73
2017-05-07T13:06:29.424Z,100973.05
2017-05-07T13:08:57.370Z,100973.91
2017-05-07T13:11:24.907Z,100974.70
2017-05-07T13:13:52.436Z,100974.45
2017-05-07T13:16:20.015Z,100975.76
2017-05-07T13:18:47.549Z,100976.48
2017-05-07T13:21:15.136Z,100966.52
2017-05-07T13:23:42.668Z,100972.84
2017-05-07T13:26:10.343Z,100965.80
2017-05-07T13:28:37.872Z,100967.69
2017-05-07T13:31:05.436Z,100963.47
2017-05-07T13:33:33.008Z,100961.66
2017-05-07T13:36:00.561Z,100958.59
2017-05-07T13:38:28.144Z,100966.28
2017-05-07T13:40:56.079Z,100964.29
2017-05-07T13:43:24.200Z,100964.54
2017-05-07T13:45:52.508Z,100958.37
2017-05-07T13:48:21.225Z,100965.20
2017-05-07T13:50:49.662Z,100968.11
2017-05-07T13:53:17.566Z,100971.16
2017-05-07T13:55:45.890Z,100965.05
2017-05-07T13:58:13.418Z,100964.77
2017-05-07T14:00:41.170Z,100962.97
2017-05-07T14:03:08.697Z,100968.05
2017-05-07T14:05:36.209Z,100964.42
2017-05-07T14:08:03.823Z,100967.17
2017-05-07T14:10:31.395Z,100971.09
2017-05-07T14:12:58.972Z,100965.97
2017-05-07T14:15:26.568Z,100968.70
2017-05-07T14:17:54.524Z,100967.83
2017-05-07T14:20:22.297Z,100976.80
2017-05-07T14:22:49.840Z,100970.95
2017-05-07T14:25:17.520Z,100972.12
2017-05-07T14:27:45.121Z,100965.34
2017-05-07T14:30:12.731Z,100967.68
2017-05-07T14:32:40.701Z,100967.97
2017-05-07T14:35:08.276Z,100970.78
2017-05-07T14:37:35.882Z,100968.72
2017-05-07T14:40:03.621Z,100969.25
2017-05-07T14:42:32.862Z,100966.53
2017-05-07T14:45:00.655Z,100978.11
2017-05-07T14:47:28.771Z,100976.86
2017-05-07T14:49:56.359Z,100980.34
2017-05-07T14:52:23.964Z,100984.12
2017-05-07T14:54:51.729Z,100993.91
2017-05-07T14:57:19.357Z,100988.84
2017-05-07T14:59:46.938Z,100987.86
2017-05-07T15:02:14.643Z,100989.36
2017-05-07T15:04:42.215Z,100991.86
2017-05-07T15:07:09.776Z,100996.85
2017-05-07T15:09:37.359Z,100997.14
2017-05-07T15:12:04.912Z,100998.09
2017-05-07T15:14:32.490Z,101000.64
2017-05-07T15:17:00.108Z,100994.23
2017-05-07T15:19:27.837Z,101007.59
2017-05-07T15:21:55.406Z,101002.77
2017-05-07T15:24:22.991Z,101010.64
2017-05-07T15:26:51.032Z,101009.43
2017-05-07T15:29:18.615Z,101007.82
2017-05-07T15:31:46.342Z,101003.14
2017-05-07T15:34:14.090Z,101009.43
2017-05-07T15:36:41.728Z,101008.80
2017-05-07T15:39:09.287Z,101008.20
2017-05-07T15:41:36.969Z,101005.94
2017-05-07T15:44:04.634Z,101002.17
2017-05-07T15:46:32.200Z,101006.80
2017-05-07T15:48:59.950Z,101013.73
2017-05-07T15:51:27.535Z,101014.64
2017-05-07T15:53:55.452Z,101004.60
2017-05-07T15:56:23.055Z,101009.54
2017-05-07T15:58:50.617Z,101011.77
2017-05-07T16:01:18.219Z,101017.72
2017-05-07T16:03:45.768Z,101018.47
2017-05-07T16:06:13.951Z,101021.48
2017-05-07T16:08:41.499Z,101029.01
2017-05-07T16:11:09.067Z,101022.05
2017-05-07T16:13:36.686Z,101025.74
2017-05-07T16:16:19.933Z,101024.03
2017-05-07T16:22:09.812Z,101029.48
2017-05-07T16:24:52.993Z,101029.50
2017-05-07T16:27:42.223Z,101026.55
2017-05-07T16:30:12.940Z,101025.59
2017-05-07T16:32:40.497Z,101023.66
2017-05-07T16:35:08.088Z,101026.43
2017-05-07T16:37:35.627Z,101033.34
2017-05-07T16:40:04.325Z,101031.83
2017-05-07T16:42:31.864Z,101028.08
2017-05-07T16:45:06.657Z,101035.34
2017-05-07T16:47:34.252Z,101037.42
2017-05-07T16:50:01.819Z,101035.75
2017-05-07T16:52:29.847Z,101038.07
2017-05-07T16:54:57.616Z,101037.17
2017-05-07T16:57:25.155Z,101038.01
2017-05-07T16:59:52.779Z,101043.53
2017-05-07T17:02:20.328Z,101049.41
2017-05-07T17:04:48.056Z,101043.84
2017-05-07T17:07:21.160Z,101053.19
2017-05-07T17:09:48.860Z,101053.13
2017-05-07T17:12:16.456Z,101057.05
2017-05-07T17:14:44.000Z,101056.80
2017-05-07T17:17:11.615Z,101053.17
2017-05-07T17:19:39.210Z,101060.82
2017-05-07T17:22:06.784Z,101058.06
2017-05-07T17:24:34.315Z,101058.25
2017-05-07T17:27:02.036Z,101065.61
2017-05-07T17:29:29.669Z,101062.41
2017-05-07T17:31:57.515Z,101061.71
2017-05-07T17:34:25.065Z,101063.30
2017-05-07T17:36:52.741Z,101068.86
2017-05-07T17:39:20.326Z,101064.68
2017-05-07T17:41:47.919Z,101069.22
2017-05-07T17:44:15.491Z,101068.55
2017-05-07T17:46:43.049Z,101072.61
2017-05-07T17:49:10.687Z,101070.43
2017-05-07T17:51:38.294Z,101079.42
2017-05-07T17:54:06.021Z,101079.98
2017-05-07T17:56:33.576Z,101077.66
2017-05-07T17:59:01.451Z,101074.30
2017-05-07T18:01:28.985Z,101077.20
2017-05-07T18:03:56.576Z,101083.63
2017-05-07T18:06:24.157Z,101083.18
2017-05-07T18:08:51.717Z,101087.95
2017-05-07T18:11:19.289Z,101087.20
2017-05-07T18:13:46.839Z,101084.39
2017-05-07T18:16:14.571Z,101084.76
2017-05-07T18:18:42.187Z,101085.66
2017-05-07T18:21:09.791Z,101089.88
2017-05-07T18:23:37.848Z,101089.20
2017-05-07T18:26:05.389Z,101087.28
2017-05-07T18:28:32.959Z,101093.63
2017-05-07T18:31:00.496Z,101089.34
2017-05-07T18:33:29.271Z,101089.23
2017-05-07T18:35:56.817Z,101092.66
2017-05-07T18:38:24.353Z,101097.06
2017-05-07T18:40:51.912Z,101100.92
2017-05-07T18:43:19.735Z,101096.14
2017-05-07T18:45:47.255Z,101101.06
2017-05-07T18:48:14.826Z,101102.48
2017-05-07T18:50:42.428Z,101109.66
2017-05-07T18:53:10.002Z,101107.15
2017-05-07T18:55:37.524Z,101110.88
2017-05-07T18:58:05.403Z,101110.58
2017-05-07T19:00:32.939Z,101111.17
2017-05-07T19:03:00.535Z,101113.17
2017-05-07T19:05:28.147Z,101110.42
2017-05-07T19:07:55.751Z,101109.70
2017-05-07T19:10:23.699Z,101120.92
2017-05-07T19:12:51.285Z,101120.39
2017-05-07T19:15:18.873Z,101123.77
2017-05-07T19:17:46.602Z,101134.77
2017-05-07T19:20:14.223Z,101137.45
2017-05-07T19:22:41.880Z,101135.48
2017-05-07T19:25:09.505Z,101138.33
2017-05-07T19:27:37.113Z,101135.77
2017-05-07T19:30:04.689Z,101148.80
2017-05-07T19:32:32.638Z,101148.27
2017-05-07T19:35:00.254Z,101152.44
2017-05-07T19:37:27.817Z,101150.97
2017-05-07T19:39:55.644Z,101158.31
2017-05-07T19:42:23.250Z,101156.19
2017-05-07T19:44:50.789Z,101170.78
2017-05-07T19:47:18.403Z,101169.84
2017-05-07T19:49:45.952Z,101173.97
2017-05-07T19:52:13.625Z,101176.66
2017-05-07T19:54:41.172Z,101181.22
2017-05-07T19:57:08.749Z,101186.50
2017-05-07T19:59:36.348Z,101183.86
2017-05-07T20:02:03.905Z,101188.12
2017-05-07T20:04:31.671Z,101188.64
2017-05-07T20:06:59.278Z,101186.37
2017-05-07T20:09:26.795Z,101191.94
2017-05-07T20:11:54.359Z,101199.12
2017-05-07T20:14:21.905Z,101196.12
2017-05-07T20:16:49.538Z,101196.63
2017-05-07T20:19:17.082Z,101202.25
2017-05-07T20:21:44.647Z,101204.23
2017-05-07T20:24:12.201Z,101208.05
2017-05-07T20:26:39.769Z,101203.41
2017-05-07T20:29:07.719Z,101205.41
2017-05-07T20:31:35.278Z,101209.66
2017-05-07T20:34:02.812Z,101202.98
2017-05-07T20:36:30.652Z,101210.24
2017-05-07T20:38:58.184Z,101208.12
2017-05-07T20:41:25.727Z,101212.91
2017-05-07T20:43:53.287Z,101219.08
2017-05-07T20:46:20.831Z,101218.44
2017-05-07T20:48:48.424Z,101223.11
2017-05-07T20:51:16.110Z,101225.70
2017-05-07T20:53:43.656Z,101224.41
2017-05-07T20:56:11.226Z,101225.36
2017-05-07T20:58:38.832Z,101218.11
2017-05-07T21:01:06.375Z,101217.33
2017-05-07T21:03:34.015Z,101222.30
2017-05-07T21:06:01.553Z,101227.70
2017-05-07T21:08:29.128Z,101221.19
2017-05-07T21:10:56.676Z,101223.72
2017-05-07T21:13:24.263Z,101227.42
2017-05-07T21:15:51.800Z,101225.98
2017-05-07T21:18:19.487Z,101231.39
2017-05-07T21:20:47.664Z,101230.72
2017-05-07T21:23:15.200Z,101229.52
2017-05-07T21:25:42.861Z,101234.77
2017-05-07T21:28:10.405Z,101238.30
2017-05-07T21:30:38.072Z,101241.56
2017-05-07T21:33:05.604Z,101236.58
2017-05-07T21:35:33.240Z,101242.91
2017-05-07T21:38:00.927Z,101241.28
2017-05-07T21:40:28.510Z,101243.32
2017-05-07T21:42:56.152Z,101247.88
2017-05-07T21:45:23.721Z,101240.63
2017-05-07T21:47:51.403Z,101242.25
2017-05-07T21:50:18.943Z,101242.80
2017-05-07T21:52:46.479Z,101243.73
2017-05-07T21:55:14.072Z,101243.86
2017-05-07T21:57:41.605Z,101252.63
2017-05-07T22:00:09.296Z,101249.25
2017-05-07T22:02:36.857Z,101248.57
2017-05-07T22:05:04.856Z,101251.81
2017-05-07T22:07:32.384Z,101259.08
2017-05-07T22:09:59.919Z,101250.47
2017-05-07T22:12:27.487Z,101260.05
2017-05-07T22:14:55.012Z,101257.19
2017-05-07T22:17:22.587Z,101262.18
2017-05-07T22:19:50.108Z,101260.17
2017-05-07T22:22:17.675Z,101270.13
2017-05-07T22:24:45.192Z,101263.17
2017-05-07T22:27:12.876Z,101270.87
2017-05-07T22:29:40.399Z,101262.54
2017-05-07T22:32:07.924Z,101262.55
2017-05-07T22:34:35.489Z,101262.27
2017-05-07T22:37:03.028Z,101271.39
2017-05-07T22:39:30.947Z,101275.42
2017-05-07T22:41:58.467Z,101276.52
2017-05-07T22:44:26.012Z,101280.41
2017-05-07T22:46:53.572Z,101294.25
2017-05-07T22:49:21.084Z,101296.53
2017-05-07T22:51:48.747Z,101296.45
2017-05-07T22:54:16.268Z,101294.00
2017-05-07T22:56:43.786Z,101300.11
2017-05-07T22:59:11.352Z,101298.47
2017-05-07T23:01:38.884Z,101311.84
2017-05-07T23:04:06.604Z,101304.23
2017-05-07T23:06:34.143Z,101307.42
2017-05-07T23:09:01.679Z,101308.80
2017-05-07T23:11:29.253Z,101313.62
2017-05-07T23:13:56.784Z,101315.63
2017-05-07T23:16:24.365Z,101312.21
2017-05-07T23:18:52.435Z,101322.03
2017-05-07T23:21:20.103Z,101325.28
2017-05-07T23:23:47.615Z,101333.28
2017-05-07T23:26:15.131Z,101328.48
2017-05-07T23:28:42.717Z,101322.84
2017-05-07T23:31:10.265Z,101330.18
2017-05-07T23:33:37.820Z,101324.02
2017-05-07T23:36:05.348Z,101326.11
2017-05-07T23:38:33.014Z,101323.12
2017-05-07T23:41:00.526Z,101328.77
2017-05-07T23:43:28.049Z,101329.77
2017-05-07T23:45:55.605Z,101331.60
2017-05-07T23:48:23.124Z,101324.89
2017-05-07T23:50:50.671Z,101328.27
2017-05-07T23:53:18.185Z,101335.88
2017-05-07T23:55:45.871Z,101333.00
2017-05-07T23:58:13.486Z,101335.13
